Time;durP1;ratioP1;P1;durP2;ratioP2;P2;SDS_P1;SDS_P2;PMS_P1;PMS_P2;Temp;Humidity;BMP_temperature;BMP_pressure;BME280_temperature;BME280_humidity;BME280_pressure;Samples;Min_cycle;Max_cycle;Signal;HPM_P1;HPM_P2
2022/09/22 00:02:08;;;;;;;;;7.75;7.00;;;;;16.35;43.58;101642.47;5094772;27;46866;-45
2022/09/22 00:04:34;;;;;;;;;10.25;7.00;;;;;16.35;43.14;101647.75;5095868;27;71831;-47
2022/09/22 00:07:00;;;;;;;;;9.25;8.75;;;;;16.32;43.28;101643.47;5087988;27;69326;-48
2022/09/22 00:09:25;;;;;;;;;9.75;7.75;;;;;16.31;43.30;101641.72;5092930;27;45534;-44
2022/09/22 00:11:53;;;;;;;;;10.00;8.00;;;;;16.29;43.18;101640.06;5098592;27;45232;-45
2022/09/22 00:14:25;;;;;;;;;9.50;8.25;;;;;16.28;43.59;101640.97;5092959;27;45480;-43
2022/09/22 00:16:55;;;;;;;;;8.75;7.25;;;;;16.26;43.33;101640.16;5097177;27;47988;-49
2022/09/22 00:19:24;;;;;;;;;7.00;7.00;;;;;16.24;43.61;101642.88;5090559;27;45375;-44
2022/09/22 00:21:49;;;;;;;;;9.75;7.00;;;;;16.18;43.30;101636.94;5100343;27;46116;-47
2022/09/22 00:24:15;;;;;;;;;8.50;7.75;;;;;16.22;43.69;101644.69;5088881;27;45267;-47
2022/09/22 00:26:41;;;;;;;;;8.00;7.50;;;;;16.21;43.54;101645.59;5099536;27;45433;-44
2022/09/22 00:29:08;;;;;;;;;8.50;7.25;;;;;16.19;43.76;101641.31;5094418;27;45277;-45
2022/09/22 00:31:34;;;;;;;;;10.25;7.00;;;;;16.16;43.68;101644.06;5089907;27;46193;-45
2022/09/22 00:34:00;;;;;;;;;8.75;7.25;;;;;16.14;43.74;101642.31;5088491;27;45259;-46
2022/09/22 00:36:26;;;;;;;;;13.75;8.50;;;;;16.10;44.11;101638.06;5100965;27;55223;-46
2022/09/22 00:38:54;;;;;;;;;11.75;8.25;;;;;16.06;43.72;101639.09;5100479;27;46985;-49
2022/09/22 00:41:26;;;;;;;;;9.75;8.00;;;;;16.05;43.89;101639.16;5100033;27;45553;-45
2022/09/22 00:44:25;;;;;;;;;7.25;7.25;;;;;16.01;43.84;101638.41;5095466;27;45543;-48
2022/09/22 00:47:08;;;;;;;;;8.75;7.75;;;;;15.98;44.14;101641.13;5103254;27;45395;-45
2022/09/22 00:49:48;;;;;;;;;8.25;6.75;;;;;15.96;44.23;101634.22;5076189;27;45495;-44
2022/09/22 00:52:18;;;;;;;;;7.25;4.00;;;;;15.93;44.19;101637.81;5096271;27;49697;-45
2022/09/22 00:54:44;;;;;;;;;8.00;6.75;;;;;15.89;44.54;101638.84;5099616;27;47450;-46
2022/09/22 00:57:17;;;;;;;;;9.00;7.25;;;;;15.86;44.22;101634.50;5100146;27;48181;-46
2022/09/22 00:59:44;;;;;;;;;9.00;8.25;;;;;15.83;44.14;101634.63;5098173;27;45746;-48
2022/09/22 01:02:09;;;;;;;;;8.75;8.00;;;;;15.81;44.62;101635.59;5098420;27;71165;-44
2022/09/22 01:04:35;;;;;;;;;8.50;6.25;;;;;15.77;44.79;101632.19;5082069;27;70534;-44
2022/09/22 01:07:01;;;;;;;;;11.00;8.50;;;;;15.74;44.68;101632.25;5099128;27;69379;-44
2022/09/22 01:09:27;;;;;;;;;6.25;5.75;;;;;15.72;44.79;101634.09;5096035;27;71834;-44
2022/09/22 01:11:52;;;;;;;;;6.50;6.50;;;;;15.68;44.62;101622.78;5100151;27;45373;-44
2022/09/22 01:14:39;;;;;;;;;12.25;10.75;;;;;15.66;45.18;101621.97;5098971;27;60541;-43
2022/09/22 01:17:33;;;;;;;;;5.75;5.00;;;;;15.65;44.64;101622.91;5099783;27;45361;-44
2022/09/22 01:20:35;;;;;;;;;7.75;6.00;;;;;15.67;45.00;101620.19;5069338;27;45479;-45
2022/09/22 01:23:32;;;;;;;;;6.50;5.75;;;;;15.66;44.73;101619.34;5096088;27;45510;-44
2022/09/22 01:26:15;;;;;;;;;7.25;5.00;;;;;15.64;45.21;101618.53;5096098;27;46000;-44
2022/09/22 01:29:04;;;;;;;;;8.25;5.75;;;;;15.63;45.10;101610.66;5092992;27;45581;-44
2022/09/22 01:32:01;;;;;;;;;5.50;4.00;;;;;15.59;45.31;101612.53;5096555;27;45525;-44
2022/09/22 01:34:53;;;;;;;;;7.75;5.50;;;;;15.56;45.03;101605.59;5052250;27;46022;-48
2022/09/22 01:37:43;;;;;;;;;9.50;6.25;;;;;15.53;45.46;101608.34;5098162;27;51183;-46
2022/09/22 01:40:15;;;;;;;;;11.50;6.50;;;;;15.49;45.38;101614.63;5075169;27;45443;-44
2022/09/22 01:42:49;;;;;;;;;6.25;5.50;;;;;15.46;45.06;101614.72;5099419;27;46243;-49
2022/09/22 01:45:24;;;;;;;;;7.25;5.75;;;;;15.43;45.58;101614.81;5092431;27;45371;-47
2022/09/22 01:47:54;;;;;;;;;5.25;5.00;;;;;15.37;45.71;101615.91;5098838;27;45935;-45
2022/09/22 01:50:24;;;;;;;;;6.25;3.50;;;;;15.32;45.49;101616.97;5116882;27;45512;-56
2022/09/22 01:52:51;;;;;;;;;6.25;6.00;;;;;15.23;45.80;101612.84;5096983;27;46093;-50
2022/09/22 01:55:24;;;;;;;;;6.00;6.00;;;;;15.17;46.00;101613.91;5095368;27;45461;-48
2022/09/22 01:58:18;;;;;;;;;6.00;5.00;;;;;15.17;45.97;101619.19;5094601;27;45932;-45
2022/09/22 02:00:52;;;;;;;;;5.75;5.00;;;;;15.17;45.97;101621.84;5094746;27;45296;-43
2022/09/22 02:04:01;;;;;;;;;6.00;6.00;;;;;15.16;45.74;101616.59;5096392;27;51937;-45
2022/09/22 02:06:36;;;;;;;;;8.25;5.25;;;;;15.13;45.90;101611.41;5094497;27;54570;-44
2022/09/22 02:09:10;;;;;;;;;7.50;6.25;;;;;15.11;45.89;101611.47;5094728;27;45345;-45
2022/09/22 02:11:36;;;;;;;;;8.00;6.50;;;;;15.09;46.11;101605.38;5098315;27;45345;-47
2022/09/22 02:14:03;;;;;;;;;7.00;5.50;;;;;15.08;45.88;101614.19;5093818;27;45291;-45
2022/09/22 02:16:29;;;;;;;;;5.25;5.00;;;;;15.08;45.87;101608.06;5096730;27;45712;-44
2022/09/22 02:19:01;;;;;;;;;5.25;5.25;;;;;15.08;46.04;101608.06;5095548;27;45321;-45
2022/09/22 02:21:27;;;;;;;;;6.25;5.75;;;;;15.08;46.23;101608.06;5094776;27;45345;-44
2022/09/22 02:23:53;;;;;;;;;9.25;5.00;;;;;15.07;46.43;101607.22;5084324;27;45457;-44
2022/09/22 02:26:22;;;;;;;;;6.50;5.00;;;;;15.04;46.36;101602.03;5087549;27;50421;-46
2022/09/22 02:28:50;;;;;;;;;8.50;5.00;;;;;14.99;46.11;101602.16;5091474;27;45772;-46
2022/09/22 02:31:16;;;;;;;;;5.50;3.75;;;;;14.95;46.46;101602.31;5077882;27;45386;-44
2022/09/22 02:33:41;;;;;;;;;5.00;3.75;;;;;14.90;46.07;101591.06;5097094;27;56575;-44
2022/09/22 02:36:07;;;;;;;;;5.00;5.00;;;;;14.85;46.71;101591.19;5095135;27;74635;-44
2022/09/22 02:38:51;;;;;;;;;4.75;4.25;;;;;14.80;46.21;101593.09;5096584;27;45836;-44
2022/09/22 02:41:27;;;;;;;;;6.00;5.00;;;;;14.76;46.51;101600.25;5111235;27;45355;-43
2022/09/22 02:43:53;;;;;;;;;5.00;5.00;;;;;14.75;46.79;101588.00;5080396;27;45406;-44
2022/09/22 02:46:24;;;;;;;;;6.50;4.75;;;;;14.74;46.50;101594.16;5096935;27;53638;-44
2022/09/22 02:48:54;;;;;;;;;6.75;5.00;;;;;14.71;46.50;101586.34;5088693;27;45570;-47
2022/09/22 02:51:19;;;;;;;;;6.00;6.00;;;;;14.71;46.92;101586.34;5078588;27;45404;-44
2022/09/22 02:53:45;;;;;;;;;7.00;6.00;;;;;14.72;46.59;101581.97;5106419;27;72886;-44
2022/09/22 02:56:10;;;;;;;;;9.00;6.00;;;;;14.70;46.40;101579.38;5085033;27;46274;-43
2022/09/22 02:58:35;;;;;;;;;4.75;4.25;;;;;14.70;46.85;101589.06;5097200;27;73241;-47
2022/09/22 03:01:01;;;;;;;;;6.00;5.00;;;;;14.68;46.99;101585.56;5098267;27;45208;-45
2022/09/22 03:03:26;;;;;;;;;5.00;5.00;;;;;14.66;47.26;101580.38;5098119;27;46674;-45
2022/09/22 03:05:51;;;;;;;;;7.00;7.00;;;;;14.66;46.66;101584.75;5094915;27;58214;-46
2022/09/22 03:08:17;;;;;;;;;7.25;5.25;;;;;14.66;46.95;101579.50;5096836;27;71518;-44
2022/09/22 03:10:42;;;;;;;;;7.50;6.00;;;;;14.64;46.71;101581.31;5096747;27;60120;-43
2022/09/22 03:13:07;;;;;;;;;12.25;7.25;;;;;14.64;46.70;101584.81;5093255;27;71856;-46
2022/09/22 03:15:33;;;;;;;;;9.50;7.25;;;;;14.64;46.84;101579.53;5097119;27;62209;-45
2022/09/22 03:17:58;;;;;;;;;3.25;2.00;;;;;14.63;46.72;101579.63;5095140;27;66370;-44
2022/09/22 03:20:23;;;;;;;;;7.25;6.25;;;;;14.63;47.05;101576.97;5094597;27;53668;-44
2022/09/22 03:22:49;;;;;;;;;7.00;6.00;;;;;14.59;46.88;101571.78;5093452;27;65430;-44
2022/09/22 03:25:14;;;;;;;;;6.50;5.50;;;;;14.60;46.88;101572.66;5093833;27;69534;-44
2022/09/22 03:27:39;;;;;;;;;9.75;6.25;;;;;14.58;47.34;101570.06;5096548;27;68055;-44
2022/09/22 03:30:06;;;;;;;;;7.75;5.50;;;;;14.56;46.84;101569.22;5090239;27;45499;-43
2022/09/22 03:32:32;;;;;;;;;10.50;6.75;;;;;14.53;47.58;101564.03;5087785;27;45360;-44
2022/09/22 03:34:57;;;;;;;;;6.50;5.00;;;;;14.53;47.12;101568.44;5088528;27;46081;-43
2022/09/22 03:37:23;;;;;;;;;8.75;7.00;;;;;14.51;46.93;101563.22;5097485;27;45432;-44
2022/09/22 03:39:48;;;;;;;;;6.25;3.25;;;;;14.50;47.66;101561.50;5101302;27;45664;-44
2022/09/22 03:42:13;;;;;;;;;7.00;5.75;;;;;14.46;47.83;101556.38;5094294;27;45278;-43
2022/09/22 03:44:39;;;;;;;;;9.25;8.00;;;;;14.43;47.44;101568.72;5095319;27;45664;-44
2022/09/22 03:47:04;;;;;;;;;9.50;7.00;;;;;14.41;47.76;101565.28;5090549;27;64907;-44
2022/09/22 03:49:30;;;;;;;;;8.75;6.25;;;;;14.38;47.32;101565.34;5092612;27;56544;-44
2022/09/22 03:51:56;;;;;;;;;9.25;6.00;;;;;14.37;47.71;101563.63;5095873;27;45524;-44
2022/09/22 03:54:21;;;;;;;;;8.25;6.25;;;;;14.36;47.81;101566.28;5092626;27;46063;-43
2022/09/22 03:56:47;;;;;;;;;7.50;7.50;;;;;14.33;47.62;101564.63;5099342;27;45276;-43
2022/09/22 03:59:12;;;;;;;;;8.50;7.00;;;;;14.32;48.07;101557.63;5100035;27;45353;-45
2022/09/22 04:01:38;;;;;;;;;7.00;7.00;;;;;14.29;48.32;101560.38;5099022;27;45296;-44
2022/09/22 04:04:03;;;;;;;;;8.00;7.00;;;;;14.25;47.92;101553.44;5098944;27;68966;-44
2022/09/22 04:06:29;;;;;;;;;19.25;16.25;;;;;14.21;48.45;101557.09;5099740;27;45208;-43
2022/09/22 04:08:54;;;;;;;;;13.25;11.75;;;;;14.18;48.14;101554.53;5098522;27;45359;-43
2022/09/22 04:11:20;;;;;;;;;9.50;8.50;;;;;14.19;48.14;101562.41;5093297;27;45604;-43
2022/09/22 04:13:45;;;;;;;;;9.25;6.75;;;;;14.17;48.36;101553.69;5101027;27;46582;-43
2022/09/22 04:16:11;;;;;;;;;11.50;9.25;;;;;14.12;48.63;101552.94;5099895;27;45758;-44
2022/09/22 04:18:39;;;;;;;;;7.75;7.00;;;;;14.08;48.20;101551.31;5096797;27;68217;-44
2022/09/22 04:21:05;;;;;;;;;12.75;9.50;;;;;14.08;48.17;101551.31;5098673;27;45289;-44
2022/09/22 04:23:30;;;;;;;;;9.00;7.00;;;;;14.08;48.35;101547.81;5101547;27;45400;-44
2022/09/22 04:25:55;;;;;;;;;7.00;6.75;;;;;14.03;48.41;101546.19;5092715;27;73035;-45
2022/09/22 04:28:21;;;;;;;;;7.75;6.00;;;;;14.00;48.83;101542.78;5091269;27;67352;-44
2022/09/22 04:30:46;;;;;;;;;7.75;7.00;;;;;13.98;49.09;101548.06;5096672;27;45326;-44
2022/09/22 04:33:11;;;;;;;;;8.50;8.00;;;;;13.97;48.61;101543.72;5087693;27;46286;-44
2022/09/22 04:35:37;;;;;;;;;8.50;7.75;;;;;13.96;48.92;101542.00;5090083;27;50051;-44
2022/09/22 04:38:03;;;;;;;;;6.00;6.00;;;;;13.96;48.91;101542.00;5097791;27;45184;-44
2022/09/22 04:40:28;;;;;;;;;8.75;8.75;;;;;13.98;48.63;101544.59;5100818;27;45287;-45
2022/09/22 04:42:54;;;;;;;;;6.75;6.75;;;;;13.99;49.13;101534.03;5112354;27;47228;-45
2022/09/22 04:45:20;;;;;;;;;10.25;9.00;;;;;14.00;48.86;101538.34;5096531;27;45448;-45
2022/09/22 04:47:46;;;;;;;;;8.50;8.00;;;;;14.02;48.64;101540.94;5094343;27;45251;-45
2022/09/22 04:50:12;;;;;;;;;12.75;10.75;;;;;14.03;48.87;101535.66;5089953;27;45578;-44
2022/09/22 04:52:38;;;;;;;;;17.25;13.25;;;;;14.05;48.87;101541.72;5095663;27;45375;-46
2022/09/22 04:55:04;;;;;;;;;9.75;8.00;;;;;14.08;48.38;101537.28;5120607;27;45555;-45
2022/09/22 04:57:29;;;;;;;;;12.00;9.00;;;;;14.10;48.57;101538.13;5098147;27;45417;-46
2022/09/22 04:59:55;;;;;;;;;11.00;7.75;;;;;14.13;48.53;101548.53;5098495;27;45323;-45
2022/09/22 05:02:20;;;;;;;;;9.00;7.50;;;;;14.14;48.54;101545.88;5100792;27;46198;-46
2022/09/22 05:04:46;;;;;;;;;7.00;7.00;;;;;14.14;48.45;101537.97;5100027;27;45215;-45
2022/09/22 05:07:11;;;;;;;;;12.25;8.75;;;;;14.15;48.73;101541.50;5100836;27;48674;-45
2022/09/22 05:09:37;;;;;;;;;8.75;7.50;;;;;14.15;48.46;101550.25;5099338;27;57846;-46
2022/09/22 05:12:03;;;;;;;;;9.75;8.25;;;;;14.15;48.71;101544.97;5100498;27;45547;-47
2022/09/22 05:14:28;;;;;;;;;11.75;7.25;;;;;14.14;48.86;101547.66;5097101;27;45275;-44
2022/09/22 05:16:54;;;;;;;;;13.25;9.50;;;;;14.13;48.73;101544.16;5100536;27;45256;-47
2022/09/22 05:19:20;;;;;;;;;11.25;8.75;;;;;14.13;48.80;101548.53;5098102;27;67812;-45
2022/09/22 05:21:45;;;;;;;;;5.00;5.00;;;;;14.12;48.55;101546.84;5100242;27;47213;-44
2022/09/22 05:24:10;;;;;;;;;10.50;10.25;;;;;14.10;48.44;101554.78;5096836;27;45684;-46
2022/09/22 05:26:36;;;;;;;;;10.50;9.00;;;;;14.10;49.02;101560.03;5100471;27;65045;-46
2022/09/22 05:29:01;;;;;;;;;11.50;9.00;;;;;14.10;48.83;101562.66;5092915;27;74318;-45
2022/09/22 05:31:26;;;;;;;;;12.00;10.75;;;;;14.07;48.89;101559.25;5099781;27;45973;-44
2022/09/22 05:33:52;;;;;;;;;9.00;9.00;;;;;14.02;48.65;101560.25;5087211;27;45800;-44
2022/09/22 05:36:17;;;;;;;;;12.00;10.00;;;;;14.00;48.70;101567.31;5099455;27;45843;-47
2022/09/22 05:38:42;;;;;;;;;9.25;8.25;;;;;13.99;49.27;101568.22;5098276;27;62306;-45
2022/09/22 05:41:08;;;;;;;;;11.75;7.50;;;;;13.97;49.21;101572.69;5096389;27;67144;-44
2022/09/22 05:43:33;;;;;;;;;12.25;9.75;;;;;13.94;49.10;101577.16;5098213;27;45394;-44
2022/09/22 05:45:58;;;;;;;;;11.25;9.25;;;;;13.93;48.95;101578.91;5098607;27;45431;-44
2022/09/22 05:48:24;;;;;;;;;12.25;11.00;;;;;13.90;48.85;101579.03;5096765;27;45346;-47
2022/09/22 05:50:49;;;;;;;;;16.75;13.00;;;;;13.88;49.32;101579.94;5089975;27;45364;-48
2022/09/22 05:53:15;;;;;;;;;17.75;11.75;;;;;13.85;49.11;101587.03;5094280;27;45323;-47
2022/09/22 05:55:41;;;;;;;;;14.00;11.75;;;;;13.81;49.59;101585.41;5094167;27;45391;-46
2022/09/22 05:58:10;;;;;;;;;14.75;13.00;;;;;13.77;49.43;101582.88;5083472;27;45441;-44
2022/09/22 06:00:35;;;;;;;;;13.25;11.50;;;;;13.76;49.80;101581.16;5098554;27;45506;-46
2022/09/22 06:03:01;;;;;;;;;12.00;11.50;;;;;13.74;49.49;101589.09;5081396;27;45285;-51
2022/09/22 06:05:26;;;;;;;;;14.25;10.25;;;;;13.71;49.49;101580.41;5094115;27;60619;-45
2022/09/22 06:08:02;;;;;;;;;14.25;11.25;;;;;13.70;49.55;101584.78;5098566;27;66516;-48
2022/09/22 06:10:28;;;;;;;;;15.50;12.00;;;;;13.70;49.54;101587.44;5097597;27;45661;-45
2022/09/22 06:13:01;;;;;;;;;17.50;17.50;;;;;13.70;49.35;101590.06;5086862;27;45316;-42
2022/09/22 06:15:27;;;;;;;;;17.75;15.00;;;;;13.70;49.76;101576.03;5095547;27;46519;-41
2022/09/22 06:17:53;;;;;;;;;17.75;13.25;;;;;13.68;49.53;101581.34;5098162;27;45414;-41
2022/09/22 06:20:19;;;;;;;;;14.00;11.50;;;;;13.68;50.10;101579.56;5094791;27;46374;-41
2022/09/22 06:22:44;;;;;;;;;16.25;12.50;;;;;13.68;49.58;101574.31;5094743;27;64676;-44
2022/09/22 06:25:10;;;;;;;;;16.00;12.00;;;;;13.72;49.78;101575.09;5094319;27;45349;-44
2022/09/22 06:27:36;;;;;;;;;21.50;15.00;;;;;13.75;49.83;101568.91;5086386;27;45545;-45
2022/09/22 06:30:01;;;;;;;;;39.25;20.25;;;;;13.79;49.39;101568.78;5089173;27;45600;-43
2022/09/22 06:32:26;;;;;;;;;13.75;10.50;;;;;13.79;49.54;101566.16;5096357;27;45266;-43
2022/09/22 06:34:52;;;;;;;;;18.50;13.00;;;;;13.80;49.40;101565.22;5099968;27;45475;-43
2022/09/22 06:37:19;;;;;;;;;13.00;13.00;;;;;13.86;49.56;101561.56;5092508;27;45230;-43
2022/09/22 06:39:44;;;;;;;;;16.25;13.25;;;;;13.88;49.11;101562.38;5082795;27;46694;-43
2022/09/22 06:42:10;;;;;;;;;15.00;12.25;;;;;13.90;49.06;101568.50;5091839;27;45306;-43
2022/09/22 06:44:35;;;;;;;;;14.75;12.00;;;;;13.92;49.58;101563.19;5078320;27;45295;-47
2022/09/22 06:47:07;;;;;;;;;15.00;12.75;;;;;13.94;49.40;101569.28;5114042;27;45483;-42
2022/09/22 06:49:32;;;;;;;;;21.00;15.25;;;;;13.94;49.26;101572.75;5091573;27;46336;-43
2022/09/22 06:51:57;;;;;;;;;15.75;12.50;;;;;13.95;49.54;101569.22;5092610;27;71295;-42
2022/09/22 06:54:23;;;;;;;;;23.25;14.75;;;;;13.96;49.15;101570.94;5095634;27;61679;-44
2022/09/22 06:56:48;;;;;;;;;16.50;12.50;;;;;13.99;49.46;101570.00;5069259;27;46868;-43
2022/09/22 06:59:15;;;;;;;;;14.25;13.75;;;;;13.99;49.16;101560.34;5098617;27;68443;-47
2022/09/22 07:01:41;;;;;;;;;24.00;17.25;;;;;14.02;49.34;101570.78;5090117;27;45255;-42
2022/09/22 07:04:08;;;;;;;;;26.50;20.25;;;;;14.05;49.61;101569.81;5091873;27;45425;-44
2022/09/22 07:06:34;;;;;;;;;15.75;13.50;;;;;14.05;49.21;101572.47;5098567;27;45295;-43
2022/09/22 07:09:00;;;;;;;;;30.75;20.25;;;;;14.07;49.29;101572.41;5091845;27;46337;-42
2022/09/22 07:11:25;;;;;;;;;19.75;15.75;;;;;14.09;48.93;101575.88;5095947;27;71390;-43
2022/09/22 07:13:52;;;;;;;;;37.50;19.75;;;;;14.10;49.25;101578.47;5096491;27;45319;-44
2022/09/22 07:16:19;;;;;;;;;25.00;18.75;;;;;14.13;49.36;101577.50;5094468;27;45193;-44
2022/09/22 07:18:48;;;;;;;;;22.00;16.50;;;;;14.15;49.06;101573.94;5096546;27;47443;-42
2022/09/22 07:21:23;;;;;;;;;21.75;14.75;;;;;14.21;49.20;101579.00;5096356;27;45302;-46
2022/09/22 07:23:50;;;;;;;;;24.00;17.00;;;;;14.27;48.93;101579.75;5092969;27;45340;-45
2022/09/22 07:26:18;;;;;;;;;21.75;15.75;;;;;14.29;48.50;101572.66;5082656;27;45235;-46
2022/09/22 07:28:45;;;;;;;;;19.00;13.00;;;;;14.31;48.54;101571.72;5090991;27;46256;-44
2022/09/22 07:31:13;;;;;;;;;19.25;19.25;;;;;14.32;48.48;101569.94;5102748;27;45348;-43
2022/09/22 07:33:41;;;;;;;;;19.75;14.00;;;;;14.33;48.66;101571.69;5097739;27;45335;-42
2022/09/22 07:36:09;;;;;;;;;21.25;16.50;;;;;14.35;48.77;101562.81;5098314;27;45265;-42
2022/09/22 07:38:36;;;;;;;;;21.50;16.50;;;;;14.38;48.42;101568.00;5095787;27;46216;-43
2022/09/22 07:41:06;;;;;;;;;22.50;15.00;;;;;14.41;48.35;101567.91;5099244;27;45772;-43
2022/09/22 07:43:32;;;;;;;;;15.25;14.25;;;;;14.42;48.27;101572.25;5101810;27;45473;-43
2022/09/22 07:45:58;;;;;;;;;18.25;16.50;;;;;14.45;48.14;101563.41;5099874;27;45192;-42
2022/09/22 07:48:36;;;;;;;;;20.75;15.25;;;;;14.50;48.59;101573.78;5102266;27;68363;-45
2022/09/22 07:51:10;;;;;;;;;20.50;15.00;;;;;14.53;48.02;101568.44;5102461;27;45341;-44
2022/09/22 07:53:38;;;;;;;;;22.00;17.75;;;;;14.57;48.50;101570.06;5102350;27;45450;-44
2022/09/22 07:56:12;;;;;;;;;20.75;16.75;;;;;14.61;47.95;101564.69;5093122;27;45653;-44
2022/09/22 07:58:47;;;;;;;;;19.25;15.75;;;;;14.66;48.27;101572.47;5101343;27;46228;-42
2022/09/22 08:01:13;;;;;;;;;24.00;17.00;;;;;14.69;48.07;101568.88;5084311;27;46031;-44
2022/09/22 08:03:38;;;;;;;;;18.00;14.75;;;;;14.73;47.86;101568.75;5097130;27;45441;-45
2022/09/22 08:06:11;;;;;;;;;20.00;15.00;;;;;14.76;47.65;101573.03;5101323;27;45410;-45
2022/09/22 08:08:41;;;;;;;;;15.75;14.25;;;;;14.80;47.84;101569.38;5100305;27;45486;-42
2022/09/22 08:11:12;;;;;;;;;20.75;18.75;;;;;14.83;47.76;101564.03;5105758;27;45406;-43
2022/09/22 08:13:38;;;;;;;;;22.25;16.75;;;;;14.88;47.64;101558.63;5091936;27;45327;-46
2022/09/22 08:16:03;;;;;;;;;18.25;15.25;;;;;14.93;47.75;101561.97;5088879;27;45515;-43
2022/09/22 08:18:29;;;;;;;;;18.75;17.25;;;;;14.97;47.17;101561.81;5094970;27;46661;-42
2022/09/22 08:20:55;;;;;;;;;19.00;15.25;;;;;15.03;47.36;101557.25;5093151;27;45623;-43
2022/09/22 08:23:20;;;;;;;;;18.25;17.50;;;;;15.07;46.96;101565.03;5090487;27;45318;-42
2022/09/22 08:25:45;;;;;;;;;17.50;16.50;;;;;15.13;47.25;101563.97;5101366;27;71591;-42
2022/09/22 08:28:11;;;;;;;;;15.75;15.75;;;;;15.16;47.17;101548.91;5101878;27;46973;-43
2022/09/22 08:30:38;;;;;;;;;15.75;13.75;;;;;15.21;46.75;101558.44;5096593;27;45223;-43
2022/09/22 08:33:03;;;;;;;;;20.25;15.00;;;;;15.27;46.76;101552.97;5092075;27;45276;-44
2022/09/22 08:35:29;;;;;;;;;18.25;14.75;;;;;15.31;46.75;101558.06;5088214;27;45413;-43
2022/09/22 08:37:54;;;;;;;;;20.50;15.50;;;;;15.39;46.76;101560.47;5089032;27;63002;-42
2022/09/22 08:40:22;;;;;;;;;20.50;15.25;;;;;15.46;46.48;101566.41;5092657;27;68986;-41
2022/09/22 08:42:49;;;;;;;;;15.50;14.25;;;;;15.49;46.29;101559.25;5100886;27;45284;-41
2022/09/22 08:45:29;;;;;;;;;14.50;13.50;;;;;15.56;46.21;101560.75;5094486;27;45624;-41
2022/09/22 08:53:49;;;;;;;;;19.25;15.25;;;;;15.77;45.93;101554.81;5093413;27;45318;-42
2022/09/22 08:56:27;;;;;;;;;16.75;13.50;;;;;15.84;45.77;101558.94;5092294;27;45285;-42
2022/09/22 08:58:58;;;;;;;;;17.50;14.50;;;;;15.93;45.58;101555.97;5098380;27;46365;-45
2022/09/22 09:01:45;;;;;;;;;18.00;14.75;;;;;16.01;45.94;101564.47;5083096;27;45340;-41
2022/09/22 09:04:27;;;;;;;;;17.75;14.00;;;;;16.07;45.41;101564.25;5101053;27;45252;-43
2022/09/22 09:07:11;;;;;;;;;16.75;12.50;;;;;16.14;44.98;101559.59;5097288;27;45337;-44
2022/09/22 09:09:55;;;;;;;;;18.50;15.25;;;;;16.20;44.98;101561.16;5101048;27;46427;-43
2022/09/22 09:12:48;;;;;;;;;16.25;15.50;;;;;16.27;45.02;101562.63;5099555;27;45387;-45
2022/09/22 09:15:20;;;;;;;;;20.00;14.25;;;;;16.32;45.03;101560.69;5088133;27;45349;-43
2022/09/22 09:17:47;;;;;;;;;21.25;13.25;;;;;16.39;44.74;101561.31;5100259;27;45432;-42
2022/09/22 09:20:18;;;;;;;;;15.75;11.25;;;;;16.44;44.55;101562.00;5098625;27;46180;-43
2022/09/22 09:22:54;;;;;;;;;14.00;11.25;;;;;16.48;44.09;101559.22;5097797;27;46066;-42
2022/09/22 09:25:29;;;;;;;;;12.25;12.25;;;;;16.51;44.25;101556.41;5122231;27;45416;-42
2022/09/22 09:28:05;;;;;;;;;11.50;9.75;;;;;16.54;43.44;101563.38;5092454;27;45556;-42
2022/09/22 09:30:45;;;;;;;;;16.00;11.00;;;;;16.59;44.20;101555.25;5099404;27;45961;-42
2022/09/22 09:33:27;;;;;;;;;10.50;9.00;;;;;16.64;44.03;101550.66;5100058;27;45199;-42
2022/09/22 09:35:53;;;;;;;;;14.50;11.00;;;;;16.68;43.95;101553.13;5096260;27;45234;-45
2022/09/22 09:38:49;;;;;;;;;17.00;13.50;;;;;16.74;43.96;101552.03;5100602;27;45491;-42
2022/09/22 09:41:18;;;;;;;;;15.50;13.50;;;;;16.84;43.76;101552.56;5096848;27;45354;-43
2022/09/22 09:43:44;;;;;;;;;13.25;11.50;;;;;16.88;43.64;101547.06;5100395;27;46131;-41
2022/09/22 09:46:45;;;;;;;;;13.50;10.00;;;;;16.95;43.65;101550.34;5090319;27;45368;-42
2022/09/22 09:49:15;;;;;;;;;13.25;11.25;;;;;17.01;43.31;101543.94;5079775;27;45715;-43
2022/09/22 09:51:46;;;;;;;;;13.75;12.00;;;;;17.06;43.32;101542.81;5097331;27;46062;-44
2022/09/22 09:54:13;;;;;;;;;14.50;11.50;;;;;17.13;43.12;101545.22;5098319;27;45404;-43
2022/09/22 09:57:06;;;;;;;;;11.00;9.00;;;;;17.19;43.27;101537.91;5101178;27;45335;-41
2022/09/22 10:02:20;;;;;;;;;11.50;9.00;;;;;17.34;42.63;101527.59;5098979;27;45282;-42
2022/09/22 10:05:03;;;;;;;;;11.75;9.00;;;;;17.39;42.45;101529.09;5099638;27;45865;-43
2022/09/22 10:07:43;;;;;;;;;9.00;7.00;;;;;17.48;42.11;101532.28;5100116;27;45294;-43
2022/09/22 10:10:27;;;;;;;;;10.25;5.00;;;;;17.53;41.66;101520.56;5097037;27;45506;-46
2022/09/22 10:12:52;;;;;;;;;10.00;6.00;;;;;17.59;41.38;101524.72;5124109;27;47097;-44
2022/09/22 10:15:25;;;;;;;;;6.00;5.00;;;;;17.66;41.17;101518.25;5087160;27;45245;-43
2022/09/22 10:17:50;;;;;;;;;7.75;5.00;;;;;17.71;41.16;101523.34;5099375;27;45339;-42
2022/09/22 10:20:25;;;;;;;;;7.25;5.00;;;;;17.75;40.95;101511.69;5098893;27;63927;-43
2022/09/22 10:22:51;;;;;;;;;6.25;6.25;;;;;17.80;40.77;101507.88;5098171;27;47030;-43
2022/09/22 10:25:27;;;;;;;;;8.75;5.75;;;;;17.87;40.93;101512.97;5098165;27;45243;-43
2022/09/22 10:28:00;;;;;;;;;5.75;4.00;;;;;17.92;40.77;101511.81;5100422;27;45286;-43
2022/09/22 10:30:28;;;;;;;;;6.75;5.00;;;;;17.97;40.24;101501.88;5099928;27;45323;-43
2022/09/22 10:33:02;;;;;;;;;5.50;5.00;;;;;18.02;40.12;101504.28;5091535;27;48226;-42
2022/09/22 10:35:29;;;;;;;;;4.50;3.25;;;;;18.07;39.59;101509.41;5091268;27;45254;-43
2022/09/22 10:38:18;;;;;;;;;4.75;4.50;;;;;18.12;39.30;101510.03;5095724;27;45483;-47
2022/09/22 10:40:47;;;;;;;;;5.00;5.00;;;;;18.16;39.30;101503.66;5093126;27;45381;-43
2022/09/22 10:43:55;;;;;;;;;6.50;4.50;;;;;18.23;38.93;101493.66;5121357;27;46330;-45
2022/09/22 10:46:49;;;;;;;;;6.00;4.00;;;;;18.29;38.90;101491.56;5094583;27;46000;-43
2022/09/22 10:49:30;;;;;;;;;7.50;4.50;;;;;18.35;38.96;101482.47;5074630;27;45300;-46
2022/09/22 10:52:18;;;;;;;;;3.25;3.25;;;;;18.40;38.70;101485.75;5094922;27;45377;-45
2022/09/22 10:55:11;;;;;;;;;6.00;5.25;;;;;18.46;38.96;101484.59;5090270;27;45485;-43
2022/09/22 10:57:58;;;;;;;;;8.25;5.25;;;;;18.50;37.96;101472.91;5091667;27;45416;-44
2022/09/22 11:00:27;;;;;;;;;6.25;3.25;;;;;18.55;37.63;101471.75;5095100;27;45475;-47
2022/09/22 11:03:24;;;;;;;;;5.75;5.75;;;;;18.61;38.05;101470.63;5092815;27;66489;-46
2022/09/22 11:12:16;;;;;;;;;9.75;7.25;;;;;18.74;37.81;101455.81;5095801;27;45451;-43
2022/09/22 11:14:53;;;;;;;;;1.00;1.00;;;;;18.81;37.44;101464.31;5094039;27;45479;-45
2022/09/22 11:17:40;;;;;;;;;4.00;4.00;;;;;18.86;37.13;101457.03;5094124;27;45472;-42
2022/09/22 11:20:08;;;;;;;;;5.00;4.00;;;;;18.90;36.76;101461.22;5095600;27;45307;-41
2022/09/22 11:22:52;;;;;;;;;4.00;4.00;;;;;18.93;36.41;101452.28;5099722;27;45326;-43
2022/09/22 11:25:47;;;;;;;;;9.50;7.00;;;;;18.95;36.22;101442.44;5092570;27;45315;-46
2022/09/22 11:28:41;;;;;;;;;4.00;3.00;;;;;18.97;36.74;101444.06;5098293;27;45315;-41
2022/09/22 11:31:20;;;;;;;;;4.25;4.25;;;;;19.00;37.11;101443.06;5092828;27;45262;-44
2022/09/22 11:33:45;;;;;;;;;4.75;4.75;;;;;19.04;37.64;101439.31;5092461;27;45414;-44
2022/09/22 11:36:24;;;;;;;;;3.33;3.33;;;;;19.04;36.91;101441.13;5083553;27;45482;-47
2022/09/22 11:39:06;;;;;;;;;4.50;2.00;;;;;19.06;36.84;101439.22;5088208;27;45437;-43
2022/09/22 11:41:54;;;;;;;;;4.50;4.50;;;;;19.09;36.73;101444.38;5097167;27;45450;-44
2022/09/22 11:44:38;;;;;;;;;5.00;3.25;;;;;19.09;36.94;101437.28;5094392;27;45555;-43
2022/09/22 11:47:23;;;;;;;;;5.25;2.00;;;;;19.13;36.73;101444.13;5089618;27;45783;-45
2022/09/22 11:50:20;;;;;;;;;5.50;4.00;;;;;19.15;36.86;101442.25;5092785;27;45437;-44
2022/09/22 11:53:00;;;;;;;;;8.25;5.25;;;;;19.20;36.62;101434.06;5095914;27;45696;-44